sensor_id;sensor_type;location;lat;lon;timestamp;P1;durP1;ratioP1;P2;durP2;ratioP2
60203;SDS011;46068;52.132;4.618;2023-07-20T00:00:53;2.65;;;1.17;;
60203;SDS011;46068;52.132;4.618;2023-07-20T00:03:20;1.27;;;1.00;;
60203;SDS011;46068;52.132;4.618;2023-07-20T00:05:48;3.08;;;1.20;;
60203;SDS011;46068;52.132;4.618;2023-07-20T00:08:14;1.27;;;1.17;;
60203;SDS011;46068;52.132;4.618;2023-07-20T00:10:41;2.55;;;1.25;;
60203;SDS011;46068;52.132;4.618;2023-07-20T00:13:08;2.28;;;1.13;;
60203;SDS011;46068;52.132;4.618;2023-07-20T00:15:35;2.65;;;0.80;;
60203;SDS011;46068;52.132;4.618;2023-07-20T00:18:02;3.55;;;0.70;;
60203;SDS011;46068;52.132;4.618;2023-07-20T00:20:29;2.50;;;0.85;;
60203;SDS011;46068;52.132;4.618;2023-07-20T00:22:55;3.05;;;0.80;;
60203;SDS011;46068;52.132;4.618;2023-07-20T00:25:23;1.92;;;0.93;;
60203;SDS011;46068;52.132;4.618;2023-07-20T00:27:49;1.25;;;0.88;;
60203;SDS011;46068;52.132;4.618;2023-07-20T00:30:15;1.27;;;0.70;;
60203;SDS011;46068;52.132;4.618;2023-07-20T00:32:43;2.17;;;0.93;;
60203;SDS011;46068;52.132;4.618;2023-07-20T00:35:09;1.33;;;0.88;;
60203;SDS011;46068;52.132;4.618;2023-07-20T00:37:36;2.15;;;0.80;;
60203;SDS011;46068;52.132;4.618;2023-07-20T00:40:03;1.40;;;0.80;;
60203;SDS011;46068;52.132;4.618;2023-07-20T00:42:32;2.90;;;1.20;;
60203;SDS011;46068;52.132;4.618;2023-07-20T00:44:58;1.98;;;1.27;;
60203;SDS011;46068;52.132;4.618;2023-07-20T00:47:25;2.78;;;1.30;;
60203;SDS011;46068;52.132;4.618;2023-07-20T00:49:53;3.05;;;1.48;;
60203;SDS011;46068;52.132;4.618;2023-07-20T00:52:20;2.65;;;1.33;;
60203;SDS011;46068;52.132;4.618;2023-07-20T00:54:47;2.50;;;1.50;;
60203;SDS011;46068;52.132;4.618;2023-07-20T00:57:14;3.53;;;1.50;;
60203;SDS011;46068;52.132;4.618;2023-07-20T00:59:40;3.45;;;1.70;;
60203;SDS011;46068;52.132;4.618;2023-07-20T01:02:07;3.45;;;1.60;;
60203;SDS011;46068;52.132;4.618;2023-07-20T01:04:33;3.13;;;1.80;;
60203;SDS011;46068;52.132;4.618;2023-07-20T01:07:03;3.35;;;1.85;;
60203;SDS011;46068;52.132;4.618;2023-07-20T01:09:33;2.33;;;1.52;;
60203;SDS011;46068;52.132;4.618;2023-07-20T01:12:02;3.70;;;1.88;;
60203;SDS011;46068;52.132;4.618;2023-07-20T01:14:31;5.57;;;1.90;;
60203;SDS011;46068;52.132;4.618;2023-07-20T01:16:57;3.03;;;1.73;;
60203;SDS011;46068;52.132;4.618;2023-07-20T01:19:24;5.43;;;2.03;;
60203;SDS011;46068;52.132;4.618;2023-07-20T01:21:51;4.82;;;2.20;;
60203;SDS011;46068;52.132;4.618;2023-07-20T01:24:30;2.78;;;1.83;;
60203;SDS011;46068;52.132;4.618;2023-07-20T01:27:00;3.75;;;1.95;;
60203;SDS011;46068;52.132;4.618;2023-07-20T01:29:36;4.00;;;2.15;;
60203;SDS011;46068;52.132;4.618;2023-07-20T01:32:11;4.00;;;2.28;;
60203;SDS011;46068;52.132;4.618;2023-07-20T01:34:37;4.07;;;2.15;;
60203;SDS011;46068;52.132;4.618;2023-07-20T01:37:04;5.63;;;2.53;;
60203;SDS011;46068;52.132;4.618;2023-07-20T01:39:31;4.88;;;2.47;;
60203;SDS011;46068;52.132;4.618;2023-07-20T01:41:58;5.28;;;2.50;;
60203;SDS011;46068;52.132;4.618;2023-07-20T01:44:25;2.90;;;2.00;;
60203;SDS011;46068;52.132;4.618;2023-07-20T01:46:51;3.83;;;2.42;;
60203;SDS011;46068;52.132;4.618;2023-07-20T01:49:18;4.00;;;2.63;;
60203;SDS011;46068;52.132;4.618;2023-07-20T01:51:45;3.50;;;3.20;;
60203;SDS011;46068;52.132;4.618;2023-07-20T01:54:11;4.35;;;3.00;;
60203;SDS011;46068;52.132;4.618;2023-07-20T01:56:37;5.13;;;3.10;;
60203;SDS011;46068;52.132;4.618;2023-07-20T01:59:04;4.53;;;2.97;;
60203;SDS011;46068;52.132;4.618;2023-07-20T02:01:30;4.07;;;3.00;;
60203;SDS011;46068;52.132;4.618;2023-07-20T02:03:56;5.03;;;3.35;;
60203;SDS011;46068;52.132;4.618;2023-07-20T02:06:24;5.45;;;2.92;;
60203;SDS011;46068;52.132;4.618;2023-07-20T02:08:50;6.88;;;3.40;;
60203;SDS011;46068;52.132;4.618;2023-07-20T02:11:16;5.72;;;3.25;;
60203;SDS011;46068;52.132;4.618;2023-07-20T02:13:43;5.07;;;2.95;;
60203;SDS011;46068;52.132;4.618;2023-07-20T02:16:09;6.85;;;3.50;;
60203;SDS011;46068;52.132;4.618;2023-07-20T02:18:36;5.50;;;3.47;;
60203;SDS011;46068;52.132;4.618;2023-07-20T02:21:02;6.10;;;3.83;;
60203;SDS011;46068;52.132;4.618;2023-07-20T02:23:30;7.07;;;3.70;;
60203;SDS011;46068;52.132;4.618;2023-07-20T02:25:56;4.55;;;3.25;;
60203;SDS011;46068;52.132;4.618;2023-07-20T02:28:23;4.85;;;2.95;;
60203;SDS011;46068;52.132;4.618;2023-07-20T02:30:49;4.68;;;3.08;;
60203;SDS011;46068;52.132;4.618;2023-07-20T02:33:16;3.92;;;2.72;;
60203;SDS011;46068;52.132;4.618;2023-07-20T02:35:42;3.58;;;2.75;;
60203;SDS011;46068;52.132;4.618;2023-07-20T02:38:08;3.03;;;2.30;;
60203;SDS011;46068;52.132;4.618;2023-07-20T02:40:36;4.38;;;2.95;;
60203;SDS011;46068;52.132;4.618;2023-07-20T02:43:02;3.67;;;2.90;;
60203;SDS011;46068;52.132;4.618;2023-07-20T02:45:28;3.95;;;2.83;;
60203;SDS011;46068;52.132;4.618;2023-07-20T02:47:55;3.55;;;2.20;;
60203;SDS011;46068;52.132;4.618;2023-07-20T02:50:22;3.22;;;2.08;;
60203;SDS011;46068;52.132;4.618;2023-07-20T02:52:48;2.40;;;1.90;;
60203;SDS011;46068;52.132;4.618;2023-07-20T02:55:15;4.13;;;2.50;;
60203;SDS011;46068;52.132;4.618;2023-07-20T02:57:43;2.47;;;2.20;;
60203;SDS011;46068;52.132;4.618;2023-07-20T03:00:10;2.35;;;1.98;;
60203;SDS011;46068;52.132;4.618;2023-07-20T03:02:36;2.00;;;1.63;;
60203;SDS011;46068;52.132;4.618;2023-07-20T03:05:03;2.42;;;1.42;;
60203;SDS011;46068;52.132;4.618;2023-07-20T03:07:32;2.30;;;1.50;;
60203;SDS011;46068;52.132;4.618;2023-07-20T03:09:58;2.28;;;1.63;;
60203;SDS011;46068;52.132;4.618;2023-07-20T03:12:24;3.47;;;1.60;;
60203;SDS011;46068;52.132;4.618;2023-07-20T03:14:52;1.67;;;1.42;;
60203;SDS011;46068;52.132;4.618;2023-07-20T03:17:19;2.15;;;1.40;;
60203;SDS011;46068;52.132;4.618;2023-07-20T03:19:46;2.58;;;1.60;;
60203;SDS011;46068;52.132;4.618;2023-07-20T03:22:12;1.40;;;1.13;;
60203;SDS011;46068;52.132;4.618;2023-07-20T03:24:38;1.95;;;1.70;;
60203;SDS011;46068;52.132;4.618;2023-07-20T03:27:05;1.58;;;1.38;;
60203;SDS011;46068;52.132;4.618;2023-07-20T03:29:31;2.45;;;1.40;;
60203;SDS011;46068;52.132;4.618;2023-07-20T03:31:59;1.20;;;1.08;;
60203;SDS011;46068;52.132;4.618;2023-07-20T03:34:25;2.13;;;1.30;;
60203;SDS011;46068;52.132;4.618;2023-07-20T03:36:52;3.25;;;1.70;;
60203;SDS011;46068;52.132;4.618;2023-07-20T03:39:18;3.17;;;1.60;;
60203;SDS011;46068;52.132;4.618;2023-07-20T03:41:44;1.80;;;1.42;;
60203;SDS011;46068;52.132;4.618;2023-07-20T03:44:11;1.65;;;1.27;;
60203;SDS011;46068;52.132;4.618;2023-07-20T03:46:37;1.95;;;1.50;;
60203;SDS011;46068;52.132;4.618;2023-07-20T03:49:04;1.50;;;1.25;;
60203;SDS011;46068;52.132;4.618;2023-07-20T03:51:31;1.42;;;1.33;;
60203;SDS011;46068;52.132;4.618;2023-07-20T03:53:57;1.58;;;1.20;;
60203;SDS011;46068;52.132;4.618;2023-07-20T03:56:24;2.30;;;1.65;;
60203;SDS011;46068;52.132;4.618;2023-07-20T03:58:51;3.63;;;1.77;;
60203;SDS011;46068;52.132;4.618;2023-07-20T04:01:17;3.08;;;1.70;;
60203;SDS011;46068;52.132;4.618;2023-07-20T04:03:44;2.03;;;1.50;;
60203;SDS011;46068;52.132;4.618;2023-07-20T04:06:11;2.47;;;1.65;;
60203;SDS011;46068;52.132;4.618;2023-07-20T04:08:39;2.83;;;1.80;;
60203;SDS011;46068;52.132;4.618;2023-07-20T04:11:05;1.77;;;1.50;;
60203;SDS011;46068;52.132;4.618;2023-07-20T04:13:31;1.98;;;1.35;;
60203;SDS011;46068;52.132;4.618;2023-07-20T04:15:59;1.90;;;1.52;;
60203;SDS011;46068;52.132;4.618;2023-07-20T04:18:25;1.92;;;1.60;;
60203;SDS011;46068;52.132;4.618;2023-07-20T04:20:52;3.47;;;1.50;;
60203;SDS011;46068;52.132;4.618;2023-07-20T04:23:19;6.53;;;1.70;;
60203;SDS011;46068;52.132;4.618;2023-07-20T04:25:46;2.50;;;1.63;;
60203;SDS011;46068;52.132;4.618;2023-07-20T04:28:12;5.38;;;1.73;;
60203;SDS011;46068;52.132;4.618;2023-07-20T04:30:38;3.17;;;1.75;;
60203;SDS011;46068;52.132;4.618;2023-07-20T04:33:05;3.75;;;2.35;;
60203;SDS011;46068;52.132;4.618;2023-07-20T04:35:46;2.97;;;2.13;;
60203;SDS011;46068;52.132;4.618;2023-07-20T04:38:13;2.67;;;2.00;;
60203;SDS011;46068;52.132;4.618;2023-07-20T04:40:42;4.05;;;1.80;;
60203;SDS011;46068;52.132;4.618;2023-07-20T04:43:09;3.22;;;2.03;;
60203;SDS011;46068;52.132;4.618;2023-07-20T04:45:35;3.60;;;1.83;;
60203;SDS011;46068;52.132;4.618;2023-07-20T04:48:01;2.08;;;1.75;;
60203;SDS011;46068;52.132;4.618;2023-07-20T04:50:27;5.53;;;1.60;;
60203;SDS011;46068;52.132;4.618;2023-07-20T04:52:54;3.55;;;1.73;;
60203;SDS011;46068;52.132;4.618;2023-07-20T04:55:20;3.85;;;1.92;;
60203;SDS011;46068;52.132;4.618;2023-07-20T04:57:48;2.97;;;1.70;;
60203;SDS011;46068;52.132;4.618;2023-07-20T05:00:14;5.95;;;1.73;;
60203;SDS011;46068;52.132;4.618;2023-07-20T05:02:41;4.25;;;1.60;;
60203;SDS011;46068;52.132;4.618;2023-07-20T05:05:08;3.13;;;1.50;;
60203;SDS011;46068;52.132;4.618;2023-07-20T05:07:34;2.00;;;1.40;;
60203;SDS011;46068;52.132;4.618;2023-07-20T05:10:00;3.35;;;1.60;;
60203;SDS011;46068;52.132;4.618;2023-07-20T05:12:27;4.72;;;1.42;;
60203;SDS011;46068;52.132;4.618;2023-07-20T05:14:54;3.17;;;1.90;;
60203;SDS011;46068;52.132;4.618;2023-07-20T05:17:21;4.28;;;1.83;;
60203;SDS011;46068;52.132;4.618;2023-07-20T05:19:47;4.25;;;1.95;;
60203;SDS011;46068;52.132;4.618;2023-07-20T05:22:13;3.72;;;1.75;;
60203;SDS011;46068;52.132;4.618;2023-07-20T05:24:40;5.00;;;1.73;;
60203;SDS011;46068;52.132;4.618;2023-07-20T05:27:06;4.32;;;1.63;;
60203;SDS011;46068;52.132;4.618;2023-07-20T05:29:32;2.78;;;1.52;;
60203;SDS011;46068;52.132;4.618;2023-07-20T05:32:00;4.78;;;1.70;;
60203;SDS011;46068;52.132;4.618;2023-07-20T05:34:27;1.33;;;1.10;;
60203;SDS011;46068;52.132;4.618;2023-07-20T05:36:54;1.58;;;0.93;;
60203;SDS011;46068;52.132;4.618;2023-07-20T05:39:20;2.50;;;1.20;;
60203;SDS011;46068;52.132;4.618;2023-07-20T05:41:47;1.88;;;1.40;;
60203;SDS011;46068;52.132;4.618;2023-07-20T05:44:13;1.75;;;1.20;;
60203;SDS011;46068;52.132;4.618;2023-07-20T05:46:38;1.30;;;1.00;;
60203;SDS011;46068;52.132;4.618;2023-07-20T05:49:06;1.92;;;0.80;;
60203;SDS011;46068;52.132;4.618;2023-07-20T05:51:32;2.17;;;0.90;;
60203;SDS011;46068;52.132;4.618;2023-07-20T05:53:59;2.47;;;1.10;;
60203;SDS011;46068;52.132;4.618;2023-07-20T05:56:25;2.10;;;1.10;;
60203;SDS011;46068;52.132;4.618;2023-07-20T05:58:51;5.70;;;0.85;;
60203;SDS011;46068;52.132;4.618;2023-07-20T06:01:17;1.80;;;0.80;;
60203;SDS011;46068;52.132;4.618;2023-07-20T06:03:44;3.53;;;0.82;;
60203;SDS011;46068;52.132;4.618;2023-07-20T06:06:12;3.50;;;0.80;;
60203;SDS011;46068;52.132;4.618;2023-07-20T06:08:38;1.08;;;0.68;;
60203;SDS011;46068;52.132;4.618;2023-07-20T06:11:04;2.22;;;0.70;;
60203;SDS011;46068;52.132;4.618;2023-07-20T06:13:29;1.55;;;0.40;;
60203;SDS011;46068;52.132;4.618;2023-07-20T06:15:56;3.05;;;0.68;;
60203;SDS011;46068;52.132;4.618;2023-07-20T06:18:22;1.17;;;0.70;;
60203;SDS011;46068;52.132;4.618;2023-07-20T06:20:49;3.50;;;0.70;;
60203;SDS011;46068;52.132;4.618;2023-07-20T06:23:17;2.15;;;0.70;;
60203;SDS011;46068;52.132;4.618;2023-07-20T06:25:44;2.45;;;0.60;;
60203;SDS011;46068;52.132;4.618;2023-07-20T06:28:10;2.63;;;0.70;;
60203;SDS011;46068;52.132;4.618;2023-07-20T06:30:37;4.03;;;0.70;;
60203;SDS011;46068;52.132;4.618;2023-07-20T06:33:03;2.88;;;0.85;;
60203;SDS011;46068;52.132;4.618;2023-07-20T06:35:29;4.25;;;1.00;;
60203;SDS011;46068;52.132;4.618;2023-07-20T06:37:56;1.42;;;0.80;;
60203;SDS011;46068;52.132;4.618;2023-07-20T06:40:24;2.10;;;0.77;;
60203;SDS011;46068;52.132;4.618;2023-07-20T06:42:50;1.67;;;0.60;;
60203;SDS011;46068;52.132;4.618;2023-07-20T06:45:16;3.90;;;0.60;;
60203;SDS011;46068;52.132;4.618;2023-07-20T06:47:43;4.00;;;0.65;;
60203;SDS011;46068;52.132;4.618;2023-07-20T06:50:09;3.40;;;0.70;;
60203;SDS011;46068;52.132;4.618;2023-07-20T06:52:36;2.13;;;0.80;;
60203;SDS011;46068;52.132;4.618;2023-07-20T06:55:02;1.63;;;0.73;;
60203;SDS011;46068;52.132;4.618;2023-07-20T06:57:30;1.83;;;0.63;;
60203;SDS011;46068;52.132;4.618;2023-07-20T06:59:56;1.67;;;0.80;;
60203;SDS011;46068;52.132;4.618;2023-07-20T07:02:23;2.45;;;0.90;;
60203;SDS011;46068;52.132;4.618;2023-07-20T07:04:49;1.17;;;0.70;;
60203;SDS011;46068;52.132;4.618;2023-07-20T07:07:15;1.05;;;0.80;;
60203;SDS011;46068;52.132;4.618;2023-07-20T07:09:42;1.85;;;0.70;;
60203;SDS011;46068;52.132;4.618;2023-07-20T07:12:08;2.22;;;0.55;;
60203;SDS011;46068;52.132;4.618;2023-07-20T07:14:36;2.58;;;0.80;;
60203;SDS011;46068;52.132;4.618;2023-07-20T07:17:02;3.45;;;1.00;;
60203;SDS011;46068;52.132;4.618;2023-07-20T07:19:29;1.13;;;0.60;;
60203;SDS011;46068;52.132;4.618;2023-07-20T07:21:55;2.85;;;0.80;;
60203;SDS011;46068;52.132;4.618;2023-07-20T07:24:21;1.92;;;0.50;;
60203;SDS011;46068;52.132;4.618;2023-07-20T07:26:47;2.45;;;0.70;;
60203;SDS011;46068;52.132;4.618;2023-07-20T07:29:14;2.40;;;0.40;;
60203;SDS011;46068;52.132;4.618;2023-07-20T07:31:41;2.25;;;0.60;;
60203;SDS011;46068;52.132;4.618;2023-07-20T07:34:08;2.63;;;0.65;;
60203;SDS011;46068;52.132;4.618;2023-07-20T07:36:34;2.00;;;0.60;;
60203;SDS011;46068;52.132;4.618;2023-07-20T07:39:00;3.25;;;0.80;;
60203;SDS011;46068;52.132;4.618;2023-07-20T07:41:27;2.78;;;0.68;;
60203;SDS011;46068;52.132;4.618;2023-07-20T07:43:53;3.05;;;0.60;;
60203;SDS011;46068;52.132;4.618;2023-07-20T07:46:19;1.77;;;0.50;;
60203;SDS011;46068;52.132;4.618;2023-07-20T07:48:47;0.73;;;0.52;;
60203;SDS011;46068;52.132;4.618;2023-07-20T07:51:14;1.95;;;0.50;;
60203;SDS011;46068;52.132;4.618;2023-07-20T07:53:40;2.10;;;0.50;;
60203;SDS011;46068;52.132;4.618;2023-07-20T07:56:07;2.22;;;0.28;;
60203;SDS011;46068;52.132;4.618;2023-07-20T07:58:34;1.30;;;0.60;;
60203;SDS011;46068;52.132;4.618;2023-07-20T08:01:00;2.80;;;0.40;;
60203;SDS011;46068;52.132;4.618;2023-07-20T08:03:26;1.13;;;0.55;;
60203;SDS011;46068;52.132;4.618;2023-07-20T08:05:55;2.95;;;0.60;;
60203;SDS011;46068;52.132;4.618;2023-07-20T08:08:21;2.38;;;0.77;;
60203;SDS011;46068;52.132;4.618;2023-07-20T08:10:47;1.63;;;0.40;;
60203;SDS011;46068;52.132;4.618;2023-07-20T08:13:14;1.75;;;0.32;;
60203;SDS011;46068;52.132;4.618;2023-07-20T08:15:45;1.52;;;0.50;;
60203;SDS011;46068;52.132;4.618;2023-07-20T08:18:12;1.10;;;0.60;;
60203;SDS011;46068;52.132;4.618;2023-07-20T08:20:38;2.25;;;0.90;;
60203;SDS011;46068;52.132;4.618;2023-07-20T08:23:05;2.85;;;0.60;;
60203;SDS011;46068;52.132;4.618;2023-07-20T08:25:32;3.00;;;0.70;;
60203;SDS011;46068;52.132;4.618;2023-07-20T08:27:58;3.42;;;0.40;;
60203;SDS011;46068;52.132;4.618;2023-07-20T08:30:25;1.17;;;0.50;;
60203;SDS011;46068;52.132;4.618;2023-07-20T08:32:52;3.75;;;0.77;;
60203;SDS011;46068;52.132;4.618;2023-07-20T08:35:18;3.53;;;0.70;;
60203;SDS011;46068;52.132;4.618;2023-07-20T08:37:44;0.93;;;0.60;;
60203;SDS011;46068;52.132;4.618;2023-07-20T08:40:12;3.42;;;0.65;;
60203;SDS011;46068;52.132;4.618;2023-07-20T08:42:40;1.48;;;0.60;;
60203;SDS011;46068;52.132;4.618;2023-07-20T08:45:07;2.08;;;0.63;;
60203;SDS011;46068;52.132;4.618;2023-07-20T08:47:34;0.90;;;0.70;;
60203;SDS011;46068;52.132;4.618;2023-07-20T08:50:01;1.38;;;0.50;;
60203;SDS011;46068;52.132;4.618;2023-07-20T08:52:31;1.25;;;0.63;;
60203;SDS011;46068;52.132;4.618;2023-07-20T08:54:59;2.80;;;0.98;;
60203;SDS011;46068;52.132;4.618;2023-07-20T08:57:29;3.85;;;0.90;;
60203;SDS011;46068;52.132;4.618;2023-07-20T08:59:57;4.50;;;2.20;;
60203;SDS011;46068;52.132;4.618;2023-07-20T09:02:24;4.95;;;1.65;;
60203;SDS011;46068;52.132;4.618;2023-07-20T09:04:51;1.25;;;0.60;;
60203;SDS011;46068;52.132;4.618;2023-07-20T09:07:18;1.20;;;0.60;;
60203;SDS011;46068;52.132;4.618;2023-07-20T09:09:45;1.10;;;0.40;;
60203;SDS011;46068;52.132;4.618;2023-07-20T09:12:14;1.67;;;0.55;;
60203;SDS011;46068;52.132;4.618;2023-07-20T09:14:43;4.07;;;0.40;;
60203;SDS011;46068;52.132;4.618;2023-07-20T09:17:12;2.00;;;0.43;;
60203;SDS011;46068;52.132;4.618;2023-07-20T09:19:38;0.82;;;0.40;;
60203;SDS011;46068;52.132;4.618;2023-07-20T09:22:05;0.70;;;0.50;;
60203;SDS011;46068;52.132;4.618;2023-07-20T09:24:31;1.23;;;0.60;;
60203;SDS011;46068;52.132;4.618;2023-07-20T09:26:57;1.50;;;0.40;;
60203;SDS011;46068;52.132;4.618;2023-07-20T09:29:28;2.65;;;0.50;;
60203;SDS011;46068;52.132;4.618;2023-07-20T09:32:00;0.80;;;0.40;;
60203;SDS011;46068;52.132;4.618;2023-07-20T09:34:28;1.88;;;0.40;;
60203;SDS011;46068;52.132;4.618;2023-07-20T09:36:54;1.92;;;0.38;;
60203;SDS011;46068;52.132;4.618;2023-07-20T09:39:20;1.27;;;0.50;;
60203;SDS011;46068;52.132;4.618;2023-07-20T09:41:47;1.42;;;0.50;;
60203;SDS011;46068;52.132;4.618;2023-07-20T09:44:14;1.13;;;0.43;;
60203;SDS011;46068;52.132;4.618;2023-07-20T09:46:41;0.90;;;0.50;;
60203;SDS011;46068;52.132;4.618;2023-07-20T09:49:09;2.35;;;0.50;;
60203;SDS011;46068;52.132;4.618;2023-07-20T09:51:35;2.67;;;0.40;;
60203;SDS011;46068;52.132;4.618;2023-07-20T09:54:03;1.95;;;0.40;;
60203;SDS011;46068;52.132;4.618;2023-07-20T09:56:30;0.73;;;0.30;;
60203;SDS011;46068;52.132;4.618;2023-07-20T09:58:56;0.70;;;0.40;;
60203;SDS011;46068;52.132;4.618;2023-07-20T10:01:22;1.88;;;0.50;;
60203;SDS011;46068;52.132;4.618;2023-07-20T10:03:50;2.30;;;0.40;;
60203;SDS011;46068;52.132;4.618;2023-07-20T10:06:19;1.80;;;0.60;;
60203;SDS011;46068;52.132;4.618;2023-07-20T10:08:46;2.45;;;0.50;;
60203;SDS011;46068;52.132;4.618;2023-07-20T10:11:13;2.45;;;0.40;;
60203;SDS011;46068;52.132;4.618;2023-07-20T10:13:41;0.40;;;0.32;;
60203;SDS011;46068;52.132;4.618;2023-07-20T10:16:09;2.15;;;0.30;;
60203;SDS011;46068;52.132;4.618;2023-07-20T10:18:38;1.02;;;0.30;;
60203;SDS011;46068;52.132;4.618;2023-07-20T10:21:07;3.28;;;0.30;;
60203;SDS011;46068;52.132;4.618;2023-07-20T10:23:37;0.85;;;0.40;;
60203;SDS011;46068;52.132;4.618;2023-07-20T10:26:04;2.20;;;0.50;;
60203;SDS011;46068;52.132;4.618;2023-07-20T10:28:31;1.88;;;0.40;;
60203;SDS011;46068;52.132;4.618;2023-07-20T10:30:58;1.35;;;0.50;;
60203;SDS011;46068;52.132;4.618;2023-07-20T10:33:24;1.92;;;0.30;;
60203;SDS011;46068;52.132;4.618;2023-07-20T10:35:50;1.75;;;0.45;;
60203;SDS011;46068;52.132;4.618;2023-07-20T10:38:17;1.08;;;0.45;;
60203;SDS011;46068;52.132;4.618;2023-07-20T10:40:45;0.63;;;0.43;;
60203;SDS011;46068;52.132;4.618;2023-07-20T10:43:19;1.08;;;0.40;;
60203;SDS011;46068;52.132;4.618;2023-07-20T10:45:48;2.40;;;0.20;;
60203;SDS011;46068;52.132;4.618;2023-07-20T10:48:15;1.30;;;0.40;;
60203;SDS011;46068;52.132;4.618;2023-07-20T10:50:41;0.70;;;0.40;;
60203;SDS011;46068;52.132;4.618;2023-07-20T10:53:11;0.65;;;0.32;;
60203;SDS011;46068;52.132;4.618;2023-07-20T10:55:38;1.23;;;0.40;;
60203;SDS011;46068;52.132;4.618;2023-07-20T10:58:10;0.75;;;0.30;;
60203;SDS011;46068;52.132;4.618;2023-07-20T11:00:37;0.98;;;0.40;;
60203;SDS011;46068;52.132;4.618;2023-07-20T11:03:03;1.50;;;0.25;;
60203;SDS011;46068;52.132;4.618;2023-07-20T11:05:33;1.13;;;0.50;;
60203;SDS011;46068;52.132;4.618;2023-07-20T11:08:00;0.68;;;0.28;;
60203;SDS011;46068;52.132;4.618;2023-07-20T11:10:27;2.22;;;0.40;;
60203;SDS011;46068;52.132;4.618;2023-07-20T11:15:45;1.48;;;0.30;;
60203;SDS011;46068;52.132;4.618;2023-07-20T11:18:12;0.95;;;0.30;;
60203;SDS011;46068;52.132;4.618;2023-07-20T11:20:38;1.85;;;0.40;;
60203;SDS011;46068;52.132;4.618;2023-07-20T11:23:05;1.02;;;0.40;;
60203;SDS011;46068;52.132;4.618;2023-07-20T11:25:35;0.47;;;0.20;;
60203;SDS011;46068;52.132;4.618;2023-07-20T11:28:05;0.65;;;0.35;;
60203;SDS011;46068;52.132;4.618;2023-07-20T11:30:32;0.45;;;0.40;;
60203;SDS011;46068;52.132;4.618;2023-07-20T11:33:00;0.60;;;0.38;;
60203;SDS011;46068;52.132;4.618;2023-07-20T11:35:26;1.35;;;0.45;;
60203;SDS011;46068;52.132;4.618;2023-07-20T11:37:52;0.52;;;0.30;;
60203;SDS011;46068;52.132;4.618;2023-07-20T11:40:19;0.38;;;0.20;;
60203;SDS011;46068;52.132;4.618;2023-07-20T11:42:45;0.55;;;0.40;;
60203;SDS011;46068;52.132;4.618;2023-07-20T11:45:11;0.85;;;0.40;;
60203;SDS011;46068;52.132;4.618;2023-07-20T11:47:39;1.27;;;0.50;;
60203;SDS011;46068;52.132;4.618;2023-07-20T11:50:09;0.73;;;0.40;;
60203;SDS011;46068;52.132;4.618;2023-07-20T11:52:36;0.50;;;0.40;;
60203;SDS011;46068;52.132;4.618;2023-07-20T11:55:02;0.77;;;0.28;;
60203;SDS011;46068;52.132;4.618;2023-07-20T11:57:29;1.67;;;0.30;;
60203;SDS011;46068;52.132;4.618;2023-07-20T11:59:55;1.35;;;0.38;;
60203;SDS011;46068;52.132;4.618;2023-07-20T12:02:24;1.02;;;0.17;;
60203;SDS011;46068;52.132;4.618;2023-07-20T12:04:51;0.70;;;0.43;;
60203;SDS011;46068;52.132;4.618;2023-07-20T12:07:19;0.30;;;0.20;;
60203;SDS011;46068;52.132;4.618;2023-07-20T12:12:27;3.30;;;0.40;;
60203;SDS011;46068;52.132;4.618;2023-07-20T12:14:53;0.75;;;0.40;;
60203;SDS011;46068;52.132;4.618;2023-07-20T12:17:19;0.93;;;0.40;;
60203;SDS011;46068;52.132;4.618;2023-07-20T12:19:45;0.88;;;0.30;;
60203;SDS011;46068;52.132;4.618;2023-07-20T12:22:12;0.85;;;0.40;;
60203;SDS011;46068;52.132;4.618;2023-07-20T12:24:40;1.02;;;0.25;;
60203;SDS011;46068;52.132;4.618;2023-07-20T12:27:07;0.28;;;0.22;;
60203;SDS011;46068;52.132;4.618;2023-07-20T12:29:33;1.27;;;0.30;;
60203;SDS011;46068;52.132;4.618;2023-07-20T12:32:01;0.40;;;0.30;;
60203;SDS011;46068;52.132;4.618;2023-07-20T12:34:27;1.45;;;0.45;;
60203;SDS011;46068;52.132;4.618;2023-07-20T12:36:54;0.90;;;0.32;;
60203;SDS011;46068;52.132;4.618;2023-07-20T12:39:21;1.50;;;0.50;;
60203;SDS011;46068;52.132;4.618;2023-07-20T12:41:48;0.88;;;0.40;;
60203;SDS011;46068;52.132;4.618;2023-07-20T12:44:15;1.98;;;0.30;;
60203;SDS011;46068;52.132;4.618;2023-07-20T12:46:41;1.10;;;0.40;;
60203;SDS011;46068;52.132;4.618;2023-07-20T12:49:07;0.75;;;0.43;;
60203;SDS011;46068;52.132;4.618;2023-07-20T12:51:34;1.38;;;0.40;;
60203;SDS011;46068;52.132;4.618;2023-07-20T12:54:00;2.70;;;0.30;;
60203;SDS011;46068;52.132;4.618;2023-07-20T12:56:26;1.23;;;0.30;;
60203;SDS011;46068;52.132;4.618;2023-07-20T12:58:54;0.40;;;0.20;;
60203;SDS011;46068;52.132;4.618;2023-07-20T13:01:20;0.55;;;0.30;;
60203;SDS011;46068;52.132;4.618;2023-07-20T13:03:46;0.77;;;0.30;;
60203;SDS011;46068;52.132;4.618;2023-07-20T13:06:13;1.55;;;0.30;;
60203;SDS011;46068;52.132;4.618;2023-07-20T13:08:39;1.85;;;0.40;;
60203;SDS011;46068;52.132;4.618;2023-07-20T13:11:05;1.98;;;0.30;;
60203;SDS011;46068;52.132;4.618;2023-07-20T13:13:32;0.88;;;0.30;;
60203;SDS011;46068;52.132;4.618;2023-07-20T13:15:59;0.63;;;0.40;;
60203;SDS011;46068;52.132;4.618;2023-07-20T13:18:25;0.38;;;0.25;;
60203;SDS011;46068;52.132;4.618;2023-07-20T13:20:52;0.45;;;0.32;;
60203;SDS011;46068;52.132;4.618;2023-07-20T13:23:18;0.40;;;0.20;;
60203;SDS011;46068;52.132;4.618;2023-07-20T13:25:44;0.93;;;0.40;;
60203;SDS011;46068;52.132;4.618;2023-07-20T13:28:11;0.38;;;0.30;;
60203;SDS011;46068;52.132;4.618;2023-07-20T13:30:37;0.60;;;0.30;;
60203;SDS011;46068;52.132;4.618;2023-07-20T13:33:05;0.98;;;0.35;;
60203;SDS011;46068;52.132;4.618;2023-07-20T13:35:31;2.53;;;0.30;;
60203;SDS011;46068;52.132;4.618;2023-07-20T13:37:57;2.47;;;0.30;;
60203;SDS011;46068;52.132;4.618;2023-07-20T13:40:24;0.20;;;0.10;;
60203;SDS011;46068;52.132;4.618;2023-07-20T13:42:50;0.50;;;0.30;;
60203;SDS011;46068;52.132;4.618;2023-07-20T13:45:16;1.00;;;0.30;;
60203;SDS011;46068;52.132;4.618;2023-07-20T13:47:43;0.57;;;0.40;;
60203;SDS011;46068;52.132;4.618;2023-07-20T13:50:11;2.08;;;0.47;;
60203;SDS011;46068;52.132;4.618;2023-07-20T13:52:37;0.40;;;0.30;;
60203;SDS011;46068;52.132;4.618;2023-07-20T13:55:04;1.38;;;0.35;;
60203;SDS011;46068;52.132;4.618;2023-07-20T13:57:30;0.57;;;0.30;;
60203;SDS011;46068;52.132;4.618;2023-07-20T13:59:57;0.63;;;0.30;;
60203;SDS011;46068;52.132;4.618;2023-07-20T14:02:25;0.40;;;0.38;;
60203;SDS011;46068;52.132;4.618;2023-07-20T14:04:51;0.73;;;0.20;;
60203;SDS011;46068;52.132;4.618;2023-07-20T14:07:22;1.20;;;0.35;;
60203;SDS011;46068;52.132;4.618;2023-07-20T14:09:48;1.42;;;0.40;;
60203;SDS011;46068;52.132;4.618;2023-07-20T14:12:14;0.55;;;0.40;;
60203;SDS011;46068;52.132;4.618;2023-07-20T14:14:41;2.75;;;0.30;;
60203;SDS011;46068;52.132;4.618;2023-07-20T14:17:07;1.30;;;0.40;;
60203;SDS011;46068;52.132;4.618;2023-07-20T14:19:33;0.93;;;0.40;;
60203;SDS011;46068;52.132;4.618;2023-07-20T14:21:59;0.88;;;0.45;;
60203;SDS011;46068;52.132;4.618;2023-07-20T14:24:27;0.32;;;0.20;;
60203;SDS011;46068;52.132;4.618;2023-07-20T14:26:53;0.20;;;0.20;;
60203;SDS011;46068;52.132;4.618;2023-07-20T14:29:20;0.82;;;0.40;;
60203;SDS011;46068;52.132;4.618;2023-07-20T14:31:46;0.28;;;0.20;;
60203;SDS011;46068;52.132;4.618;2023-07-20T14:34:15;0.30;;;0.30;;
60203;SDS011;46068;52.132;4.618;2023-07-20T14:36:41;1.10;;;0.20;;
60203;SDS011;46068;52.132;4.618;2023-07-20T14:39:07;0.90;;;0.35;;
60203;SDS011;46068;52.132;4.618;2023-07-20T14:41:35;1.13;;;0.35;;
60203;SDS011;46068;52.132;4.618;2023-07-20T14:44:02;1.85;;;0.32;;
60203;SDS011;46068;52.132;4.618;2023-07-20T14:46:28;1.23;;;0.38;;
60203;SDS011;46068;52.132;4.618;2023-07-20T14:48:55;0.95;;;0.40;;
60203;SDS011;46068;52.132;4.618;2023-07-20T14:51:21;1.30;;;0.30;;